Kenilworth, Illinois
Current Conditions -  °F | °C
As of 3:52 PM on Thursday 23 Oct 2014 (Local Time) from KPWK Reporting Station
Clear Clear  
Wind Chill: 59°   Ceiling: Unl
Heat Index: 59°   Visibility: 10mi
Dew Point: 42°   Wind: 13mph
Humidity: 53%   Direction: 180°S
Pressure: 30.08"   Gusts: NA
Location:  42.09°N, 87.72°W
Report Text: KPWK 232052Z 18011KT 10SM CLR 15/06 A3008 RMK AO2 SLP190 T01500056 57023
Loading
Personal Weather Stations






























Interactive Weather Map
Tropical Storm Tracking
New forecast layout! Learn more

10-Day Weather Forecast

Advertisements
Track Severe Weather on mobile